RPUF weather

Basa Air Base
Floridablanca, Pampanga Province, Philippines

Public forecast

Using degrees Celsius for public forecast. Weather courtesy of forecast.io.

METAR (pilot weather report)

Closest report is Diosdado Macapagal International Airport, 12.6 nm (23.3 km) NNE. Retrieved 2019/07/17 17:00 UTC (39 minutes ago):

RPLC 171700Z 18006KT 7000 -RA SCT018 OVC090 25/24 Q1003 RMK A2962

TAF (pilot weather forecast)

Closest forecast is Diosdado Macapagal International Airport, 12.6 nm (23.3 km) NNE. Retrieved 2019/07/17 12:00 UTC (6 hours ago):

TAF RPLC 171100Z 1712/1818 21006KT 8000 -RA SCT020 BKN100 TX29/1806Z TN24/1721Z TEMPO 1712/1718 18008KT 6000 -TSRA FEW015CB SCT020 OVC100